Time;durP1;ratioP1;P1;durP2;ratioP2;P2;SDS_P1;SDS_P2;PMS_P1;PMS_P2;Temp;Humidity;BMP_temperature;BMP_pressure;BME280_temperature;BME280_humidity;BME280_pressure;Samples;Min_cycle;Max_cycle;Signal;HPM_P1;HPM_P2
2023/07/02 00:00:54;;;;;;;57.57;3.30;;;;;;;;;;5031695;28;20480;-67
2023/07/02 00:03:22;;;;;;;56.77;2.30;;;;;;;;;;5031415;28;20445;-68
2023/07/02 00:05:50;;;;;;;56.83;2.60;;;;;;;;;;5031295;28;20460;-68
2023/07/02 00:08:17;;;;;;;56.80;2.37;;;;;;;;;;5031386;28;20464;-68
2023/07/02 00:10:45;;;;;;;56.83;2.57;;;;;;;;;;5031373;28;20929;-68
2023/07/02 00:13:12;;;;;;;56.57;2.13;;;;;;;;;;5031414;28;20461;-67
2023/07/02 00:15:39;;;;;;;57.40;2.60;;;;;;;;;;5030819;28;20949;-68
2023/07/02 00:18:07;;;;;;;56.83;2.30;;;;;;;;;;5031472;28;20825;-67
2023/07/02 00:20:37;;;;;;;56.77;2.40;;;;;;;;;;5031382;28;20449;-68
2023/07/02 00:23:04;;;;;;;56.73;2.20;;;;;;;;;;5031495;28;20455;-68
2023/07/02 00:25:31;;;;;;;56.77;2.50;;;;;;;;;;5030087;28;20933;-68
2023/07/02 00:27:58;;;;;;;56.77;2.37;;;;;;;;;;5024729;28;20476;-67
2023/07/02 00:30:26;;;;;;;56.87;2.40;;;;;;;;;;5030918;28;20444;-68
2023/07/02 00:32:53;;;;;;;57.00;2.47;;;;;;;;;;5031235;28;20734;-68
2023/07/02 00:35:21;;;;;;;57.33;2.93;;;;;;;;;;5030860;28;20953;-68
2023/07/02 00:37:48;;;;;;;57.20;2.40;;;;;;;;;;5031316;28;20476;-67
2023/07/02 00:40:15;;;;;;;56.77;2.30;;;;;;;;;;5031198;28;20464;-68
2023/07/02 00:42:42;;;;;;;56.87;2.33;;;;;;;;;;5030860;28;20480;-67
2023/07/02 00:45:10;;;;;;;57.27;2.80;;;;;;;;;;5030846;28;20460;-68
2023/07/02 00:47:37;;;;;;;56.80;2.47;;;;;;;;;;5031184;28;20837;-68
2023/07/02 00:50:04;;;;;;;57.07;2.57;;;;;;;;;;5032016;28;20492;-67
2023/07/02 00:52:33;;;;;;;57.20;2.77;;;;;;;;;;5035269;28;20449;-67
2023/07/02 00:55:00;;;;;;;56.70;2.57;;;;;;;;;;5035322;28;20452;-68
2023/07/02 00:57:29;;;;;;;56.87;2.50;;;;;;;;;;5034839;28;20473;-68
2023/07/02 00:59:57;;;;;;;56.97;2.30;;;;;;;;;;5034763;28;20536;-68
2023/07/02 01:02:25;;;;;;;57.00;2.40;;;;;;;;;;5034994;28;20503;-67
2023/07/02 01:04:59;;;;;;;57.13;2.60;;;;;;;;;;5035121;28;20445;-67
2023/07/02 01:07:26;;;;;;;57.30;2.50;;;;;;;;;;5034918;28;20492;-68
2023/07/02 01:09:55;;;;;;;56.87;2.50;;;;;;;;;;5034640;28;20961;-68
2023/07/02 01:12:22;;;;;;;56.70;2.40;;;;;;;;;;5035041;28;20864;-67
2023/07/02 01:14:52;;;;;;;56.80;2.33;;;;;;;;;;5034691;28;20459;-67
2023/07/02 01:17:20;;;;;;;57.27;2.60;;;;;;;;;;5034472;28;20465;-68
2023/07/02 01:19:51;;;;;;;56.97;2.33;;;;;;;;;;5034845;28;20453;-68
2023/07/02 01:22:19;;;;;;;56.93;2.77;;;;;;;;;;5034520;28;20484;-67
2023/07/02 01:24:47;;;;;;;56.67;2.40;;;;;;;;;;5034627;28;20503;-67
2023/07/02 01:27:15;;;;;;;56.77;2.30;;;;;;;;;;5034255;28;20564;-68
2023/07/02 01:29:44;;;;;;;56.90;2.30;;;;;;;;;;5034461;28;20459;-67
2023/07/02 01:32:11;;;;;;;56.67;2.50;;;;;;;;;;5034444;28;20449;-67
2023/07/02 01:34:39;;;;;;;56.83;2.40;;;;;;;;;;5034494;28;20449;-67
2023/07/02 01:37:09;;;;;;;57.10;2.50;;;;;;;;;;5033859;28;20479;-68
2023/07/02 01:39:36;;;;;;;57.00;2.37;;;;;;;;;;5034529;28;20544;-67
2023/07/02 01:42:10;;;;;;;56.70;2.50;;;;;;;;;;5034075;28;20484;-68
2023/07/02 01:44:37;;;;;;;56.57;2.20;;;;;;;;;;5034344;28;20451;-68
2023/07/02 01:47:05;;;;;;;57.30;2.70;;;;;;;;;;5033720;28;20548;-67
2023/07/02 01:49:32;;;;;;;56.93;2.30;;;;;;;;;;5032465;28;20833;-67
2023/07/02 01:51:59;;;;;;;56.80;2.20;;;;;;;;;;5034292;28;20449;-67
2023/07/02 01:54:28;;;;;;;57.37;3.03;;;;;;;;;;5033928;28;20453;-68
2023/07/02 01:56:55;;;;;;;56.87;2.40;;;;;;;;;;5033492;28;20473;-67
2023/07/02 01:59:22;;;;;;;56.83;2.50;;;;;;;;;;5033759;28;20937;-67
2023/07/02 02:01:50;;;;;;;56.53;2.40;;;;;;;;;;5033932;28;20485;-68
2023/07/02 02:04:17;;;;;;;56.57;2.40;;;;;;;;;;5033891;28;20456;-67
2023/07/02 02:06:44;;;;;;;56.80;2.20;;;;;;;;;;5033470;28;20476;-67
2023/07/02 02:09:11;;;;;;;56.47;2.20;;;;;;;;;;5033609;28;20821;-68
2023/07/02 02:11:40;;;;;;;56.67;2.20;;;;;;;;;;5033564;28;20441;-68
2023/07/02 02:14:08;;;;;;;56.77;2.40;;;;;;;;;;5033785;28;20456;-68
2023/07/02 02:16:35;;;;;;;56.97;2.10;;;;;;;;;;5033425;28;20836;-67
2023/07/02 02:19:02;;;;;;;56.90;2.30;;;;;;;;;;5033571;28;20456;-67
2023/07/02 02:21:29;;;;;;;56.80;2.60;;;;;;;;;;5033436;28;20484;-67
2023/07/02 02:23:57;;;;;;;56.87;2.77;;;;;;;;;;5033374;28;20456;-67
2023/07/02 02:26:25;;;;;;;60.70;3.37;;;;;;;;;;5032394;28;20477;-68
2023/07/02 02:28:53;;;;;;;57.00;2.30;;;;;;;;;;5033232;28;20461;-67
2023/07/02 02:31:20;;;;;;;56.77;2.43;;;;;;;;;;5033329;28;20454;-68
2023/07/02 02:33:48;;;;;;;57.30;2.80;;;;;;;;;;5033188;28;20453;-68
2023/07/02 02:36:15;;;;;;;57.20;2.70;;;;;;;;;;5032830;28;20465;-67
2023/07/02 02:38:42;;;;;;;57.67;2.70;;;;;;;;;;5033413;28;20944;-67
2023/07/02 02:41:09;;;;;;;56.77;2.30;;;;;;;;;;5033079;28;20453;-68
2023/07/02 02:43:37;;;;;;;57.07;2.47;;;;;;;;;;5033233;28;20473;-67
2023/07/02 02:46:05;;;;;;;56.77;2.30;;;;;;;;;;5032669;28;20473;-67
2023/07/02 02:48:32;;;;;;;56.97;2.30;;;;;;;;;;5032999;28;20449;-68
2023/07/02 02:51:00;;;;;;;56.73;2.20;;;;;;;;;;5032850;28;20452;-68
2023/07/02 02:53:27;;;;;;;56.73;2.40;;;;;;;;;;5032562;28;20864;-67
2023/07/02 02:55:54;;;;;;;56.77;2.50;;;;;;;;;;5032518;28;20445;-67
2023/07/02 02:58:22;;;;;;;56.83;2.40;;;;;;;;;;5032739;28;20457;-67
2023/07/02 03:00:49;;;;;;;56.70;2.27;;;;;;;;;;5032631;28;20459;-67
2023/07/02 03:03:19;;;;;;;56.57;2.40;;;;;;;;;;5032538;28;20497;-67
2023/07/02 03:05:48;;;;;;;57.00;2.40;;;;;;;;;;5032157;28;21006;-68
2023/07/02 03:08:15;;;;;;;56.67;2.27;;;;;;;;;;5032629;28;20469;-67
2023/07/02 03:10:42;;;;;;;56.57;2.30;;;;;;;;;;5032354;28;20445;-67
2023/07/02 03:13:09;;;;;;;57.00;2.33;;;;;;;;;;5032103;28;20834;-67
2023/07/02 03:15:36;;;;;;;56.77;2.33;;;;;;;;;;5032172;28;20449;-67
2023/07/02 03:18:03;;;;;;;56.47;2.30;;;;;;;;;;5032845;28;20449;-68
2023/07/02 03:20:31;;;;;;;56.67;2.40;;;;;;;;;;5032535;28;20445;-67
2023/07/02 03:22:59;;;;;;;56.67;2.50;;;;;;;;;;5032321;28;20852;-67
2023/07/02 03:25:26;;;;;;;56.67;2.47;;;;;;;;;;5032065;28;20449;-68
2023/07/02 03:27:53;;;;;;;56.73;2.37;;;;;;;;;;5032337;28;20475;-67
2023/07/02 03:30:20;;;;;;;56.80;2.20;;;;;;;;;;5032234;28;20441;-67
2023/07/02 03:32:47;;;;;;;56.90;2.30;;;;;;;;;;5031971;28;20462;-67
2023/07/02 03:35:14;;;;;;;56.97;2.30;;;;;;;;;;5032056;28;20449;-66
2023/07/02 03:37:43;;;;;;;57.67;4.20;;;;;;;;;;5032238;28;21020;-67
2023/07/02 03:40:11;;;;;;;57.30;2.90;;;;;;;;;;5032151;28;20818;-67
2023/07/02 03:42:38;;;;;;;56.73;2.20;;;;;;;;;;5032001;28;20481;-67
2023/07/02 03:45:05;;;;;;;56.77;2.67;;;;;;;;;;5031681;28;20452;-67
2023/07/02 03:47:32;;;;;;;57.07;2.57;;;;;;;;;;5031488;28;20556;-67
2023/07/02 03:50:00;;;;;;;56.87;2.50;;;;;;;;;;5032044;28;20445;-67
2023/07/02 03:52:27;;;;;;;56.67;2.50;;;;;;;;;;5032013;28;20843;-67
2023/07/02 03:54:55;;;;;;;57.40;2.63;;;;;;;;;;5031801;28;20445;-67
2023/07/02 03:57:22;;;;;;;56.87;2.37;;;;;;;;;;5031929;28;20476;-67
2023/07/02 03:59:49;;;;;;;56.97;2.77;;;;;;;;;;5031548;28;20457;-67
2023/07/02 04:02:16;;;;;;;57.37;3.10;;;;;;;;;;5031551;28;21000;-67
2023/07/02 04:04:43;;;;;;;57.00;2.50;;;;;;;;;;5031892;28;20445;-68
2023/07/02 04:07:10;;;;;;;57.00;2.80;;;;;;;;;;5031318;28;20563;-68
2023/07/02 04:09:38;;;;;;;56.47;2.40;;;;;;;;;;5031447;28;20469;-67
2023/07/02 04:12:06;;;;;;;56.77;2.30;;;;;;;;;;5031568;28;21053;-68
2023/07/02 04:14:34;;;;;;;56.80;2.40;;;;;;;;;;5031317;28;20445;-68
2023/07/02 04:17:01;;;;;;;57.20;2.40;;;;;;;;;;5031181;28;20540;-67
2023/07/02 04:19:28;;;;;;;56.77;2.20;;;;;;;;;;5031329;28;20450;-67
2023/07/02 04:21:55;;;;;;;56.57;2.50;;;;;;;;;;5031387;28;20485;-68
2023/07/02 04:24:22;;;;;;;56.90;2.40;;;;;;;;;;5030689;28;20456;-68
2023/07/02 04:26:49;;;;;;;56.67;2.40;;;;;;;;;;5030291;28;20484;-68
2023/07/02 04:29:17;;;;;;;56.93;2.60;;;;;;;;;;5031009;28;20449;-68
2023/07/02 04:31:44;;;;;;;57.60;3.90;;;;;;;;;;5031230;28;20467;-68
2023/07/02 04:34:11;;;;;;;56.67;2.90;;;;;;;;;;5031501;28;20449;-67
2023/07/02 04:36:38;;;;;;;56.67;2.50;;;;;;;;;;5031059;28;20469;-67
2023/07/02 04:39:06;;;;;;;56.67;2.30;;;;;;;;;;5031271;28;20449;-67
2023/07/02 04:41:33;;;;;;;56.90;2.30;;;;;;;;;;5031093;28;20515;-67
2023/07/02 04:44:01;;;;;;;58.70;3.00;;;;;;;;;;5031186;28;20484;-67
2023/07/02 04:46:30;;;;;;;56.77;2.30;;;;;;;;;;5030872;28;20477;-68
2023/07/02 04:48:57;;;;;;;56.77;2.30;;;;;;;;;;5031299;28;20446;-67
2023/07/02 04:51:24;;;;;;;57.00;2.40;;;;;;;;;;5030982;28;20458;-67
2023/07/02 04:53:51;;;;;;;56.87;2.50;;;;;;;;;;5030935;28;20452;-67
2023/07/02 04:56:18;;;;;;;57.10;2.60;;;;;;;;;;5030508;28;20813;-67
2023/07/02 04:58:45;;;;;;;57.53;3.43;;;;;;;;;;5031167;28;20453;-67
2023/07/02 05:01:12;;;;;;;56.70;2.10;;;;;;;;;;5031133;28;20445;-67
2023/07/02 05:03:41;;;;;;;56.90;2.30;;;;;;;;;;5030971;28;20485;-66
2023/07/02 05:06:08;;;;;;;56.57;2.00;;;;;;;;;;5030484;28;20477;-66
2023/07/02 05:08:36;;;;;;;56.90;2.70;;;;;;;;;;5030692;28;20461;-67
2023/07/02 05:11:03;;;;;;;57.77;3.17;;;;;;;;;;5030847;28;20452;-66
2023/07/02 05:13:30;;;;;;;56.77;2.50;;;;;;;;;;5030819;28;20929;-66
2023/07/02 05:15:57;;;;;;;56.77;2.30;;;;;;;;;;5030427;28;21124;-66
2023/07/02 05:18:24;;;;;;;56.50;2.20;;;;;;;;;;5030868;28;20833;-66
2023/07/02 05:20:52;;;;;;;57.23;2.70;;;;;;;;;;5030729;28;20449;-66
2023/07/02 05:23:20;;;;;;;56.57;2.30;;;;;;;;;;5030534;28;20477;-66
2023/07/02 05:25:47;;;;;;;56.50;2.00;;;;;;;;;;5030659;28;20449;-66
2023/07/02 05:28:14;;;;;;;56.50;2.00;;;;;;;;;;5031058;28;20456;-67
2023/07/02 05:30:41;;;;;;;56.47;2.30;;;;;;;;;;5030692;28;20460;-66
2023/07/02 05:33:08;;;;;;;56.60;2.13;;;;;;;;;;5030999;28;20449;-67
2023/07/02 05:35:35;;;;;;;56.47;2.20;;;;;;;;;;5030566;28;20463;-66
2023/07/02 05:38:03;;;;;;;56.50;2.20;;;;;;;;;;5034114;28;20461;-66
2023/07/02 05:40:30;;;;;;;56.80;2.63;;;;;;;;;;5034332;28;20478;-67
2023/07/02 05:42:57;;;;;;;57.10;3.23;;;;;;;;;;5034183;28;20473;-67
2023/07/02 05:45:27;;;;;;;56.70;2.30;;;;;;;;;;5033938;28;20449;-66
2023/07/02 05:47:54;;;;;;;56.77;2.40;;;;;;;;;;5033948;28;21083;-66
2023/07/02 05:50:21;;;;;;;56.43;2.30;;;;;;;;;;5034423;28;20460;-66
2023/07/02 05:52:48;;;;;;;56.57;2.17;;;;;;;;;;5033903;28;20449;-67
2023/07/02 05:55:16;;;;;;;56.80;2.90;;;;;;;;;;5033815;28;20456;-66
2023/07/02 05:57:44;;;;;;;56.67;2.40;;;;;;;;;;5033687;28;20473;-66
2023/07/02 06:00:12;;;;;;;56.47;2.20;;;;;;;;;;5033899;28;20456;-66
2023/07/02 06:02:39;;;;;;;56.60;2.17;;;;;;;;;;5034211;28;20487;-66
2023/07/02 06:05:07;;;;;;;56.60;2.53;;;;;;;;;;5033464;28;20453;-66
2023/07/02 06:07:34;;;;;;;56.63;2.50;;;;;;;;;;5033679;28;20472;-67
2023/07/02 06:10:01;;;;;;;57.90;2.90;;;;;;;;;;5033506;28;20464;-67
2023/07/02 06:12:29;;;;;;;56.47;2.20;;;;;;;;;;5033706;28;20445;-67
2023/07/02 06:14:56;;;;;;;56.67;2.40;;;;;;;;;;5033603;28;20448;-66
2023/07/02 06:17:24;;;;;;;56.50;2.20;;;;;;;;;;5033128;28;20473;-66
2023/07/02 06:19:51;;;;;;;56.77;2.40;;;;;;;;;;5033678;28;20453;-66
2023/07/02 06:22:19;;;;;;;56.83;2.23;;;;;;;;;;5033380;28;20455;-66
2023/07/02 06:24:46;;;;;;;56.60;2.40;;;;;;;;;;5033344;28;20455;-67
2023/07/02 06:27:13;;;;;;;56.90;2.97;;;;;;;;;;5032738;28;20473;-66
2023/07/02 06:29:41;;;;;;;61.83;4.90;;;;;;;;;;5033178;28;20456;-67
2023/07/02 06:32:08;;;;;;;57.57;3.33;;;;;;;;;;5033084;28;20946;-67
2023/07/02 06:34:36;;;;;;;56.90;2.90;;;;;;;;;;5033292;28;20450;-67
2023/07/02 06:37:03;;;;;;;56.90;2.97;;;;;;;;;;5024639;28;20822;-68
2023/07/02 06:39:30;;;;;;;56.70;2.30;;;;;;;;;;5033189;28;20456;-68
2023/07/02 06:41:57;;;;;;;56.67;2.03;;;;;;;;;;5033069;28;20453;-67
2023/07/02 06:44:24;;;;;;;56.60;2.33;;;;;;;;;;5032890;28;20488;-68
2023/07/02 06:46:52;;;;;;;56.50;2.10;;;;;;;;;;5032394;28;20465;-68
2023/07/02 06:49:20;;;;;;;56.27;1.93;;;;;;;;;;5032534;28;20500;-68
2023/07/02 06:51:47;;;;;;;56.90;3.03;;;;;;;;;;5032922;28;20451;-68
2023/07/02 06:54:14;;;;;;;56.50;2.00;;;;;;;;;;5032426;28;20453;-69
2023/07/02 06:56:41;;;;;;;56.27;2.37;;;;;;;;;;5032359;28;21007;-68
2023/07/02 06:59:08;;;;;;;58.13;3.53;;;;;;;;;;5032507;28;20453;-68
2023/07/02 07:01:36;;;;;;;56.40;2.43;;;;;;;;;;5032609;28;20450;-68
2023/07/02 07:04:04;;;;;;;56.60;2.60;;;;;;;;;;5032666;28;20485;-68
2023/07/02 07:06:31;;;;;;;56.90;2.10;;;;;;;;;;5032155;28;20487;-67
2023/07/02 07:08:59;;;;;;;57.00;3.27;;;;;;;;;;5032637;28;20479;-68
2023/07/02 07:11:26;;;;;;;57.27;3.27;;;;;;;;;;5032465;28;20459;-68
2023/07/02 07:13:53;;;;;;;57.00;3.27;;;;;;;;;;5032577;28;20445;-67
2023/07/02 07:16:20;;;;;;;56.47;2.13;;;;;;;;;;5032314;28;20476;-68
2023/07/02 07:18:47;;;;;;;57.00;3.07;;;;;;;;;;5032520;28;20972;-68
2023/07/02 07:21:16;;;;;;;56.57;2.47;;;;;;;;;;5032160;28;20457;-69
2023/07/02 07:23:43;;;;;;;56.97;2.70;;;;;;;;;;5029755;28;20477;-67
2023/07/02 07:26:10;;;;;;;56.83;2.47;;;;;;;;;;5030682;28;20879;-67
2023/07/02 07:28:37;;;;;;;56.70;2.40;;;;;;;;;;5031508;28;20457;-68
2023/07/02 07:31:04;;;;;;;57.40;2.90;;;;;;;;;;5031615;28;20962;-68
2023/07/02 07:33:31;;;;;;;56.50;2.40;;;;;;;;;;5032270;28;20809;-68
2023/07/02 07:35:59;;;;;;;57.20;2.63;;;;;;;;;;5031654;28;20495;-67
2023/07/02 07:38:28;;;;;;;56.50;2.00;;;;;;;;;;5032025;28;20449;-68
2023/07/02 07:40:55;;;;;;;56.30;2.10;;;;;;;;;;5031781;28;20456;-68
2023/07/02 07:43:22;;;;;;;56.43;1.90;;;;;;;;;;5031747;28;20492;-68
2023/07/02 07:45:49;;;;;;;56.43;2.00;;;;;;;;;;5031420;28;20449;-68
2023/07/02 07:48:16;;;;;;;56.80;2.53;;;;;;;;;;5031899;28;20452;-68
2023/07/02 07:50:43;;;;;;;56.93;2.73;;;;;;;;;;5031696;28;20441;-68
2023/07/02 07:53:10;;;;;;;58.00;3.60;;;;;;;;;;5031683;28;20453;-69
2023/07/02 07:55:39;;;;;;;56.67;2.10;;;;;;;;;;5031218;28;20478;-69
2023/07/02 07:58:06;;;;;;;57.17;3.20;;;;;;;;;;5031572;28;20449;-68
2023/07/02 08:00:33;;;;;;;56.47;2.30;;;;;;;;;;5031387;28;20953;-68
2023/07/02 08:03:01;;;;;;;56.60;2.20;;;;;;;;;;5031444;28;20540;-68
2023/07/02 08:05:29;;;;;;;56.47;1.93;;;;;;;;;;5031239;28;20457;-68
2023/07/02 08:07:57;;;;;;;56.97;2.67;;;;;;;;;;5031170;28;20844;-68
2023/07/02 08:10:24;;;;;;;57.83;2.67;;;;;;;;;;5031426;28;20485;-68
2023/07/02 08:12:53;;;;;;;57.17;2.57;;;;;;;;;;5031620;28;20453;-68
2023/07/02 08:15:20;;;;;;;57.47;2.33;;;;;;;;;;5031110;28;20449;-68
2023/07/02 08:17:47;;;;;;;57.00;2.40;;;;;;;;;;5031503;28;20469;-67
2023/07/02 08:20:14;;;;;;;57.57;2.90;;;;;;;;;;5031093;28;20453;-68
2023/07/02 08:22:41;;;;;;;58.60;3.23;;;;;;;;;;5031281;28;20453;-68
2023/07/02 08:25:09;;;;;;;56.67;2.40;;;;;;;;;;5030806;28;21046;-68
2023/07/02 08:27:36;;;;;;;57.37;2.70;;;;;;;;;;5030636;28;20473;-68
2023/07/02 08:30:05;;;;;;;60.37;2.50;;;;;;;;;;5023151;28;20818;-68
2023/07/02 08:32:33;;;;;;;58.00;4.20;;;;;;;;;;5031023;28;20457;-69
2023/07/02 08:35:00;;;;;;;57.57;2.83;;;;;;;;;;5030679;28;20453;-68
2023/07/02 08:37:27;;;;;;;56.87;3.07;;;;;;;;;;5031270;28;20464;-68
2023/07/02 08:39:54;;;;;;;57.77;3.20;;;;;;;;;;5031323;28;20449;-68
2023/07/02 08:42:21;;;;;;;57.70;2.63;;;;;;;;;;5031035;28;20457;-68
2023/07/02 08:44:48;;;;;;;57.00;2.20;;;;;;;;;;5030871;28;20496;-68
2023/07/02 08:47:17;;;;;;;57.07;2.37;;;;;;;;;;5030263;28;20469;-68
2023/07/02 08:49:44;;;;;;;59.30;3.37;;;;;;;;;;5030898;28;20445;-68
2023/07/02 08:52:11;;;;;;;56.87;2.90;;;;;;;;;;5031192;28;20524;-68
2023/07/02 08:54:38;;;;;;;57.97;3.07;;;;;;;;;;5030995;28;20449;-68
2023/07/02 08:57:06;;;;;;;57.57;3.10;;;;;;;;;;5030542;28;21056;-68
2023/07/02 08:59:33;;;;;;;57.37;3.17;;;;;;;;;;5030954;28;20910;-68
2023/07/02 09:02:00;;;;;;;57.97;4.33;;;;;;;;;;5027996;28;20449;-68
2023/07/02 09:04:28;;;;;;;56.90;2.73;;;;;;;;;;5030244;28;20485;-67
2023/07/02 09:07:05;;;;;;;56.77;2.33;;;;;;;;;;5030118;28;20475;-68
2023/07/02 09:09:32;;;;;;;56.30;2.50;;;;;;;;;;5030412;28;20468;-68
2023/07/02 09:11:59;;;;;;;56.70;2.30;;;;;;;;;;5032946;28;20453;-68
2023/07/02 09:14:27;;;;;;;56.33;2.17;;;;;;;;;;5034448;28;20441;-68
2023/07/02 09:17:04;;;;;;;58.03;2.80;;;;;;;;;;5033979;28;21067;-68
2023/07/02 09:19:33;;;;;;;57.23;2.63;;;;;;;;;;5034557;28;20451;-68
2023/07/02 09:22:01;;;;;;;57.80;3.00;;;;;;;;;;5034096;28;20966;-69
2023/07/02 09:24:28;;;;;;;57.00;2.83;;;;;;;;;;5034377;28;20535;-69
2023/07/02 09:26:56;;;;;;;56.37;2.00;;;;;;;;;;5034046;28;20464;-69
2023/07/02 09:29:24;;;;;;;57.20;2.50;;;;;;;;;;5034261;28;20455;-68
2023/07/02 09:31:51;;;;;;;57.60;2.80;;;;;;;;;;5034373;28;20445;-68
2023/07/02 09:34:18;;;;;;;57.73;2.50;;;;;;;;;;5034422;28;20468;-69
2023/07/02 09:36:48;;;;;;;57.40;3.47;;;;;;;;;;5032901;28;20559;-69
2023/07/02 09:39:16;;;;;;;57.77;3.80;;;;;;;;;;5034153;28;20453;-68
2023/07/02 09:41:44;;;;;;;58.00;4.17;;;;;;;;;;5034038;28;20488;-68
2023/07/02 09:44:11;;;;;;;57.20;3.23;;;;;;;;;;5034176;28;20852;-68
2023/07/02 09:46:39;;;;;;;57.07;2.70;;;;;;;;;;5033638;28;20555;-68
2023/07/02 09:49:07;;;;;;;58.07;3.33;;;;;;;;;;5034135;28;20467;-68
2023/07/02 09:51:34;;;;;;;56.80;2.40;;;;;;;;;;5033891;28;20456;-68
2023/07/02 09:54:03;;;;;;;60.90;3.53;;;;;;;;;;5033907;28;20448;-69
2023/07/02 09:56:30;;;;;;;56.80;3.03;;;;;;;;;;5033940;28;20544;-69
2023/07/02 09:58:57;;;;;;;57.17;3.00;;;;;;;;;;5034043;28;20445;-69
2023/07/02 10:01:24;;;;;;;57.97;3.13;;;;;;;;;;5033921;28;20457;-68
2023/07/02 10:03:51;;;;;;;62.10;2.87;;;;;;;;;;5033709;28;20484;-68
2023/07/02 10:06:18;;;;;;;57.10;2.30;;;;;;;;;;5033224;28;20473;-68
2023/07/02 10:08:54;;;;;;;57.70;3.00;;;;;;;;;;5033355;28;20464;-69
2023/07/02 10:11:23;;;;;;;57.27;3.10;;;;;;;;;;5033752;28;20461;-69
2023/07/02 10:13:59;;;;;;;57.93;2.83;;;;;;;;;;5033680;28;20464;-69
2023/07/02 10:16:27;;;;;;;57.43;2.73;;;;;;;;;;5033160;28;20469;-68
2023/07/02 10:18:54;;;;;;;57.20;2.77;;;;;;;;;;5033492;28;20460;-69
2023/07/02 10:21:21;;;;;;;58.57;2.30;;;;;;;;;;5033323;28;20449;-68
2023/07/02 10:23:48;;;;;;;57.97;3.00;;;;;;;;;;5032174;28;20455;-69
2023/07/02 10:26:16;;;;;;;58.30;3.77;;;;;;;;;;5032486;28;20476;-68
2023/07/02 10:28:56;;;;;;;58.70;4.37;;;;;;;;;;5033246;28;20807;-68
2023/07/02 10:31:23;;;;;;;59.00;2.60;;;;;;;;;;5033134;28;20472;-69
2023/07/02 10:33:51;;;;;;;56.60;1.90;;;;;;;;;;5032930;28;20460;-69
2023/07/02 10:36:21;;;;;;;56.53;2.30;;;;;;;;;;5033070;28;20472;-70
2023/07/02 10:38:48;;;;;;;58.27;2.80;;;;;;;;;;5033185;28;20507;-69
2023/07/02 10:41:25;;;;;;;57.17;3.07;;;;;;;;;;5033138;28;20450;-69
2023/07/02 10:43:53;;;;;;;58.47;3.70;;;;;;;;;;5033010;28;20515;-69
2023/07/02 10:46:21;;;;;;;56.90;2.63;;;;;;;;;;5032354;28;20484;-69
2023/07/02 10:48:55;;;;;;;57.80;3.23;;;;;;;;;;5033131;28;20456;-69
2023/07/02 10:51:23;;;;;;;58.10;3.90;;;;;;;;;;5032694;28;20520;-69
2023/07/02 10:54:00;;;;;;;62.23;2.93;;;;;;;;;;5032834;28;20445;-69
2023/07/02 10:56:27;;;;;;;57.50;2.30;;;;;;;;;;5032336;28;20460;-69
2023/07/02 10:58:56;;;;;;;55.90;1.90;;;;;;;;;;5032565;28;20453;-67
2023/07/02 11:01:23;;;;;;;58.10;3.57;;;;;;;;;;5032480;28;20933;-66
2023/07/02 11:03:57;;;;;;;57.03;2.87;;;;;;;;;;5032607;28;20449;-69
2023/07/02 11:06:24;;;;;;;58.80;2.90;;;;;;;;;;5032255;28;20469;-69
2023/07/02 11:08:51;;;;;;;56.90;2.80;;;;;;;;;;5032733;28;20544;-69
2023/07/02 11:11:18;;;;;;;57.60;2.60;;;;;;;;;;5032388;28;20441;-69
2023/07/02 11:13:47;;;;;;;58.37;3.43;;;;;;;;;;5032613;28;20448;-69
2023/07/02 11:16:26;;;;;;;59.60;4.93;;;;;;;;;;5032214;28;20461;-69
2023/07/02 11:18:53;;;;;;;57.23;2.87;;;;;;;;;;5032514;28;20764;-69
2023/07/02 11:21:21;;;;;;;59.40;2.70;;;;;;;;;;5032426;28;20444;-69
2023/07/02 11:23:48;;;;;;;57.00;2.33;;;;;;;;;;5032155;28;20460;-69
2023/07/02 11:26:15;;;;;;;56.27;2.30;;;;;;;;;;5031975;28;20472;-69
2023/07/02 11:28:52;;;;;;;56.97;2.97;;;;;;;;;;5032300;28;20452;-68
2023/07/02 11:31:29;;;;;;;57.93;3.37;;;;;;;;;;5032202;28;20511;-68
2023/07/02 11:33:57;;;;;;;58.30;4.30;;;;;;;;;;5031838;28;20813;-69
2023/07/02 11:36:25;;;;;;;57.37;2.80;;;;;;;;;;5031611;28;20460;-69
2023/07/02 11:38:53;;;;;;;58.10;3.20;;;;;;;;;;5031894;28;20464;-69
2023/07/02 11:41:20;;;;;;;56.90;3.10;;;;;;;;;;5031857;28;20452;-69
2023/07/02 11:43:48;;;;;;;56.60;2.10;;;;;;;;;;5031796;28;20453;-69
2023/07/02 11:46:15;;;;;;;57.17;2.43;;;;;;;;;;5030852;28;20491;-69
2023/07/02 11:48:44;;;;;;;57.27;2.00;;;;;;;;;;5031585;28;20945;-69
2023/07/02 11:51:11;;;;;;;56.40;2.20;;;;;;;;;;5031879;28;20884;-69
2023/07/02 11:53:39;;;;;;;57.47;3.80;;;;;;;;;;5031826;28;20456;-69
2023/07/02 11:56:06;;;;;;;56.00;2.10;;;;;;;;;;5031106;28;20523;-69
2023/07/02 11:58:33;;;;;;;56.50;2.67;;;;;;;;;;5031516;28;20475;-69
2023/07/02 12:01:00;;;;;;;58.00;3.80;;;;;;;;;;5031451;28;20540;-68
2023/07/02 12:03:27;;;;;;;56.60;2.60;;;;;;;;;;5031217;28;20464;-69
2023/07/02 12:05:55;;;;;;;56.40;2.20;;;;;;;;;;5030831;28;20884;-69
2023/07/02 12:08:23;;;;;;;56.40;2.20;;;;;;;;;;5031671;28;20467;-70
2023/07/02 12:10:50;;;;;;;298.13;112.00;;;;;;;;;;5031582;28;20822;-69
2023/07/02 12:13:17;;;;;;;71.97;5.07;;;;;;;;;;5031288;28;20442;-69
2023/07/02 12:15:44;;;;;;;58.50;4.17;;;;;;;;;;5030814;28;20441;-69
2023/07/02 12:18:11;;;;;;;57.43;2.93;;;;;;;;;;5030724;28;20456;-69
2023/07/02 12:20:38;;;;;;;56.83;2.80;;;;;;;;;;5031269;28;20460;-69
2023/07/02 12:23:06;;;;;;;56.70;2.40;;;;;;;;;;5031115;28;20445;-66
2023/07/02 12:25:34;;;;;;;56.50;2.67;;;;;;;;;;5030558;28;20508;-70
2023/07/02 12:28:01;;;;;;;57.67;2.60;;;;;;;;;;5030666;28;20466;-69
2023/07/02 12:30:28;;;;;;;58.07;3.63;;;;;;;;;;5030975;28;20445;-69
2023/07/02 12:32:55;;;;;;;56.60;2.30;;;;;;;;;;5030894;28;20449;-67
2023/07/02 12:35:22;;;;;;;57.47;3.20;;;;;;;;;;5030611;28;20441;-67
2023/07/02 12:37:50;;;;;;;56.37;2.27;;;;;;;;;;5030781;28;20487;-67
2023/07/02 12:40:19;;;;;;;57.60;3.17;;;;;;;;;;5030949;28;20445;-66
2023/07/02 12:42:46;;;;;;;57.20;2.70;;;;;;;;;;5030628;28;20457;-66
2023/07/02 12:45:14;;;;;;;56.40;2.67;;;;;;;;;;5030478;28;20496;-66
2023/07/02 12:47:42;;;;;;;56.37;2.63;;;;;;;;;;5034449;28;20458;-67
2023/07/02 12:50:10;;;;;;;56.00;2.20;;;;;;;;;;5034983;28;20472;-69
2023/07/02 12:52:37;;;;;;;57.10;2.40;;;;;;;;;;5035085;28;20456;-67
2023/07/02 12:55:04;;;;;;;58.20;3.60;;;;;;;;;;5034618;28;20446;-66
2023/07/02 12:57:33;;;;;;;57.07;3.53;;;;;;;;;;5034477;28;20476;-67
2023/07/02 13:00:00;;;;;;;56.87;3.13;;;;;;;;;;5034718;28;20841;-68
2023/07/02 13:02:27;;;;;;;56.37;2.33;;;;;;;;;;5034603;28;20807;-67
2023/07/02 13:04:54;;;;;;;56.23;3.20;;;;;;;;;;5034634;28;20882;-68
2023/07/02 13:07:23;;;;;;;55.90;2.47;;;;;;;;;;5034520;28;20473;-67
2023/07/02 13:09:50;;;;;;;59.20;4.73;;;;;;;;;;5034627;28;20563;-66
2023/07/02 13:12:17;;;;;;;59.40;2.50;;;;;;;;;;5034621;28;20449;-67
2023/07/02 13:14:46;;;;;;;56.87;2.80;;;;;;;;;;5034769;28;20450;-67
2023/07/02 13:17:13;;;;;;;57.77;3.23;;;;;;;;;;5034067;28;20560;-67
2023/07/02 13:19:40;;;;;;;56.17;2.77;;;;;;;;;;5033850;28;20445;-67
2023/07/02 13:22:07;;;;;;;57.30;3.90;;;;;;;;;;5034150;28;20449;-67
2023/07/02 13:24:35;;;;;;;57.27;3.37;;;;;;;;;;5034347;28;20508;-66
2023/07/02 13:27:04;;;;;;;56.87;2.90;;;;;;;;;;5034768;28;20531;-69
2023/07/02 13:29:31;;;;;;;55.80;2.30;;;;;;;;;;5034651;28;20464;-70
2023/07/02 13:31:59;;;;;;;56.33;2.90;;;;;;;;;;5034778;28;20449;-69
2023/07/02 13:34:26;;;;;;;59.10;3.37;;;;;;;;;;5034080;28;20456;-69
2023/07/02 13:36:53;;;;;;;57.03;3.10;;;;;;;;;;5033910;28;20465;-70
2023/07/02 13:39:20;;;;;;;56.30;3.10;;;;;;;;;;5034186;28;20445;-69
2023/07/02 13:41:48;;;;;;;57.70;3.20;;;;;;;;;;5034135;28;20449;-69
2023/07/02 13:44:16;;;;;;;56.70;3.20;;;;;;;;;;5034053;28;20953;-68
2023/07/02 13:46:43;;;;;;;57.07;2.90;;;;;;;;;;5033550;28;20489;-68
2023/07/02 13:49:12;;;;;;;57.10;2.93;;;;;;;;;;5033376;28;20441;-69
2023/07/02 13:51:39;;;;;;;55.60;2.23;;;;;;;;;;5033802;28;20453;-66
2023/07/02 13:54:06;;;;;;;57.00;2.80;;;;;;;;;;5033895;28;20965;-66
2023/07/02 13:56:33;;;;;;;56.60;3.60;;;;;;;;;;5033277;28;20461;-67
2023/07/02 13:59:05;;;;;;;56.83;2.77;;;;;;;;;;5033930;28;20446;-66
2023/07/02 14:01:33;;;;;;;56.77;2.97;;;;;;;;;;5033853;28;20445;-66
2023/07/02 14:04:00;;;;;;;56.47;3.50;;;;;;;;;;5033781;28;20817;-66
2023/07/02 14:06:28;;;;;;;60.80;3.70;;;;;;;;;;5033274;28;20511;-66
2023/07/02 14:08:55;;;;;;;56.30;2.40;;;;;;;;;;5033611;28;20848;-67
2023/07/02 14:11:23;;;;;;;57.77;2.87;;;;;;;;;;5033701;28;20452;-67
2023/07/02 14:13:50;;;;;;;57.27;3.90;;;;;;;;;;5033600;28;20452;-68
2023/07/02 14:16:18;;;;;;;56.30;2.50;;;;;;;;;;5033184;28;20465;-68
2023/07/02 14:18:46;;;;;;;57.30;2.67;;;;;;;;;;5033394;28;20445;-68
2023/07/02 14:21:13;;;;;;;56.10;2.50;;;;;;;;;;5033624;28;20456;-68
2023/07/02 14:23:40;;;;;;;55.77;2.43;;;;;;;;;;5033588;28;20449;-68
2023/07/02 14:26:07;;;;;;;57.27;3.37;;;;;;;;;;5032919;28;20495;-68
2023/07/02 14:28:34;;;;;;;56.07;2.77;;;;;;;;;;5032847;28;20461;-68
2023/07/02 14:31:03;;;;;;;57.63;3.10;;;;;;;;;;5033057;28;20926;-68
2023/07/02 14:33:33;;;;;;;55.87;2.60;;;;;;;;;;5032989;28;20937;-67